sensor_id;sensor_type;location;lat;lon;timestamp;pressure;altitude;pressure_sealevel;temperature;humidity
69058;BME280;56128;37.534;-122.308;2023-08-06T00:02:14;101268.47;;;25.03;76.94
69058;BME280;56128;37.534;-122.308;2023-08-06T00:04:39;101278.75;;;24.94;77.25
69058;BME280;56128;37.534;-122.308;2023-08-06T00:07:05;101269.03;;;24.91;76.94
69058;BME280;56128;37.534;-122.308;2023-08-06T00:09:31;101271.34;;;24.88;77.17
69058;BME280;56128;37.534;-122.308;2023-08-06T00:11:57;101268.38;;;24.89;79.44
69058;BME280;56128;37.534;-122.308;2023-08-06T00:14:23;101263.94;;;24.88;78.38
69058;BME280;56128;37.534;-122.308;2023-08-06T00:16:48;101263.13;;;24.88;79.01
69058;BME280;56128;37.534;-122.308;2023-08-06T00:19:14;101261.41;;;24.87;78.80
69058;BME280;56128;37.534;-122.308;2023-08-06T00:21:40;101259.25;;;24.75;79.49
69058;BME280;56128;37.534;-122.308;2023-08-06T00:24:06;101259.00;;;24.70;79.29
69058;BME280;56128;37.534;-122.308;2023-08-06T00:26:32;101250.25;;;24.60;78.69
69058;BME280;56128;37.534;-122.308;2023-08-06T00:28:57;101270.84;;;24.56;80.15
69058;BME280;56128;37.534;-122.308;2023-08-06T00:31:23;101263.69;;;24.55;80.17
69058;BME280;56128;37.534;-122.308;2023-08-06T00:33:49;101260.38;;;24.38;79.04
69058;BME280;56128;37.534;-122.308;2023-08-06T00:36:15;101247.81;;;24.22;78.97
69058;BME280;56128;37.534;-122.308;2023-08-06T00:38:41;101249.00;;;24.12;79.29
69058;BME280;56128;37.534;-122.308;2023-08-06T00:41:06;101249.97;;;24.05;80.81
69058;BME280;56128;37.534;-122.308;2023-08-06T00:43:32;101253.03;;;23.95;80.86
69058;BME280;56128;37.534;-122.308;2023-08-06T00:45:58;101240.09;;;23.89;81.22
69058;BME280;56128;37.534;-122.308;2023-08-06T00:48:24;101242.50;;;23.92;82.32
69058;BME280;56128;37.534;-122.308;2023-08-06T00:50:50;101244.00;;;23.79;80.01
69058;BME280;56128;37.534;-122.308;2023-08-06T00:53:16;101245.16;;;23.70;80.84
69058;BME280;56128;37.534;-122.308;2023-08-06T00:55:43;101248.47;;;23.65;80.71
69058;BME280;56128;37.534;-122.308;2023-08-06T00:58:10;101243.56;;;23.61;80.84
69058;BME280;56128;37.534;-122.308;2023-08-06T01:00:36;101241.34;;;23.49;80.23
69058;BME280;56128;37.534;-122.308;2023-08-06T01:03:01;101238.69;;;23.41;81.23
69058;BME280;56128;37.534;-122.308;2023-08-06T01:05:27;101239.84;;;23.32;82.46
69058;BME280;56128;37.534;-122.308;2023-08-06T01:15:49;101236.44;;;22.85;84.94
69058;BME280;56128;37.534;-122.308;2023-08-06T01:18:15;101226.66;;;22.76;85.06
69058;BME280;56128;37.534;-122.308;2023-08-06T01:20:41;101238.94;;;22.57;85.68
69058;BME280;56128;37.534;-122.308;2023-08-06T01:23:07;101234.88;;;22.29;87.08
69058;BME280;56128;37.534;-122.308;2023-08-06T01:25:34;101238.25;;;22.16;88.69
69058;BME280;56128;37.534;-122.308;2023-08-06T01:28:08;101240.75;;;21.95;89.70
69058;BME280;56128;37.534;-122.308;2023-08-06T01:30:35;101237.31;;;21.78;90.87
69058;BME280;56128;37.534;-122.308;2023-08-06T01:33:04;101242.28;;;21.66;91.66
69058;BME280;56128;37.534;-122.308;2023-08-06T01:35:31;101250.16;;;21.61;93.10
69058;BME280;56128;37.534;-122.308;2023-08-06T01:37:58;101237.78;;;21.50;93.77
69058;BME280;56128;37.534;-122.308;2023-08-06T01:40:25;101239.38;;;21.28;94.54
69058;BME280;56128;37.534;-122.308;2023-08-06T01:42:53;101238.75;;;21.17;96.34
69058;BME280;56128;37.534;-122.308;2023-08-06T01:45:19;101244.75;;;21.04;96.73
69058;BME280;56128;37.534;-122.308;2023-08-06T01:47:45;101238.13;;;20.90;97.77
69058;BME280;56128;37.534;-122.308;2023-08-06T01:50:10;101241.06;;;20.72;99.05
69058;BME280;56128;37.534;-122.308;2023-08-06T01:52:36;101242.09;;;20.63;99.31
69058;BME280;56128;37.534;-122.308;2023-08-06T01:55:02;101241.94;;;20.48;100.00
69058;BME280;56128;37.534;-122.308;2023-08-06T01:57:28;101247.50;;;20.30;100.00
69058;BME280;56128;37.534;-122.308;2023-08-06T01:59:54;101244.47;;;20.17;100.00
69058;BME280;56128;37.534;-122.308;2023-08-06T02:02:19;101239.84;;;20.09;100.00
69058;BME280;56128;37.534;-122.308;2023-08-06T02:04:45;101234.59;;;19.99;100.00
69058;BME280;56128;37.534;-122.308;2023-08-06T02:07:11;101239.31;;;19.89;100.00
69058;BME280;56128;37.534;-122.308;2023-08-06T02:09:37;101244.25;;;19.85;100.00
69058;BME280;56128;37.534;-122.308;2023-08-06T02:12:03;101246.22;;;19.67;100.00
69058;BME280;56128;37.534;-122.308;2023-08-06T02:14:29;101244.28;;;19.51;100.00
69058;BME280;56128;37.534;-122.308;2023-08-06T02:16:55;101243.00;;;19.28;100.00
69058;BME280;56128;37.534;-122.308;2023-08-06T02:19:21;101246.72;;;19.19;100.00
69058;BME280;56128;37.534;-122.308;2023-08-06T02:21:47;101250.41;;;19.10;100.00
69058;BME280;56128;37.534;-122.308;2023-08-06T02:24:13;101255.06;;;19.00;100.00
69058;BME280;56128;37.534;-122.308;2023-08-06T02:26:38;101258.34;;;18.85;100.00
69058;BME280;56128;37.534;-122.308;2023-08-06T02:29:04;101264.25;;;18.80;100.00
69058;BME280;56128;37.534;-122.308;2023-08-06T02:31:30;101266.50;;;18.67;100.00
69058;BME280;56128;37.534;-122.308;2023-08-06T02:33:56;101267.69;;;18.64;100.00
69058;BME280;56128;37.534;-122.308;2023-08-06T02:36:23;101260.44;;;18.47;100.00
69058;BME280;56128;37.534;-122.308;2023-08-06T02:38:49;101262.47;;;18.45;100.00
69058;BME280;56128;37.534;-122.308;2023-08-06T02:41:15;101268.50;;;18.39;100.00
69058;BME280;56128;37.534;-122.308;2023-08-06T02:43:41;101270.59;;;18.27;100.00
69058;BME280;56128;37.534;-122.308;2023-08-06T02:46:07;101270.03;;;18.23;100.00
69058;BME280;56128;37.534;-122.308;2023-08-06T02:48:33;101280.09;;;18.13;100.00
69058;BME280;56128;37.534;-122.308;2023-08-06T02:50:59;101277.34;;;18.05;100.00
69058;BME280;56128;37.534;-122.308;2023-08-06T02:53:25;101275.69;;;17.94;100.00
69058;BME280;56128;37.534;-122.308;2023-08-06T02:55:50;101274.00;;;17.83;100.00
69058;BME280;56128;37.534;-122.308;2023-08-06T02:58:17;101276.63;;;17.75;100.00
69058;BME280;56128;37.534;-122.308;2023-08-06T03:00:58;101290.06;;;17.66;100.00
69058;BME280;56128;37.534;-122.308;2023-08-06T03:03:24;101290.44;;;17.53;100.00
69058;BME280;56128;37.534;-122.308;2023-08-06T03:05:53;101289.47;;;17.45;100.00
69058;BME280;56128;37.534;-122.308;2023-08-06T03:08:19;101289.06;;;17.40;100.00
69058;BME280;56128;37.534;-122.308;2023-08-06T03:10:50;101292.97;;;17.27;100.00
69058;BME280;56128;37.534;-122.308;2023-08-06T03:13:17;101295.69;;;17.17;100.00
69058;BME280;56128;37.534;-122.308;2023-08-06T03:15:43;101300.69;;;17.12;100.00
69058;BME280;56128;37.534;-122.308;2023-08-06T03:18:09;101301.59;;;17.03;100.00
69058;BME280;56128;37.534;-122.308;2023-08-06T03:20:34;101301.44;;;16.95;100.00
69058;BME280;56128;37.534;-122.308;2023-08-06T03:23:00;101306.56;;;16.88;100.00
69058;BME280;56128;37.534;-122.308;2023-08-06T03:25:26;101294.22;;;16.76;100.00
69058;BME280;56128;37.534;-122.308;2023-08-06T03:27:52;101315.69;;;16.67;100.00
69058;BME280;56128;37.534;-122.308;2023-08-06T03:30:18;101316.53;;;16.58;100.00
69058;BME280;56128;37.534;-122.308;2023-08-06T03:32:43;101321.53;;;16.53;100.00
69058;BME280;56128;37.534;-122.308;2023-08-06T03:35:09;101322.78;;;16.49;100.00
69058;BME280;56128;37.534;-122.308;2023-08-06T03:37:35;101317.41;;;16.39;100.00
69058;BME280;56128;37.534;-122.308;2023-08-06T03:40:01;101319.13;;;16.30;100.00
69058;BME280;56128;37.534;-122.308;2023-08-06T03:42:28;101335.88;;;16.24;100.00
69058;BME280;56128;37.534;-122.308;2023-08-06T03:44:53;101336.44;;;16.18;100.00
69058;BME280;56128;37.534;-122.308;2023-08-06T03:47:19;101337.00;;;16.12;100.00
69058;BME280;56128;37.534;-122.308;2023-08-06T03:49:45;101341.97;;;16.06;100.00
69058;BME280;56128;37.534;-122.308;2023-08-06T03:52:11;101346.91;;;16.01;100.00
69058;BME280;56128;37.534;-122.308;2023-08-06T03:54:37;101348.47;;;15.94;100.00
69058;BME280;56128;37.534;-122.308;2023-08-06T03:57:03;101342.28;;;15.82;100.00
69058;BME280;56128;37.534;-122.308;2023-08-06T03:59:28;101346.25;;;15.78;100.00
69058;BME280;56128;37.534;-122.308;2023-08-06T04:01:54;101357.44;;;15.73;100.00
69058;BME280;56128;37.534;-122.308;2023-08-06T04:04:20;101348.78;;;15.70;100.00
69058;BME280;56128;37.534;-122.308;2023-08-06T04:06:46;101350.91;;;15.66;100.00
69058;BME280;56128;37.534;-122.308;2023-08-06T04:09:12;101361.50;;;15.58;100.00
69058;BME280;56128;37.534;-122.308;2023-08-06T04:11:38;101363.47;;;15.56;100.00
69058;BME280;56128;37.534;-122.308;2023-08-06T04:14:26;101356.38;;;15.55;100.00
69058;BME280;56128;37.534;-122.308;2023-08-06T04:16:51;101357.75;;;15.49;100.00
69058;BME280;56128;37.534;-122.308;2023-08-06T04:19:17;101356.06;;;15.48;100.00
69058;BME280;56128;37.534;-122.308;2023-08-06T04:21:43;101365.28;;;15.46;100.00
69058;BME280;56128;37.534;-122.308;2023-08-06T04:24:09;101359.44;;;15.40;100.00
69058;BME280;56128;37.534;-122.308;2023-08-06T04:26:35;101361.69;;;15.35;100.00
69058;BME280;56128;37.534;-122.308;2023-08-06T04:29:00;101366.34;;;15.33;100.00
69058;BME280;56128;37.534;-122.308;2023-08-06T04:31:26;101368.34;;;15.31;100.00
69058;BME280;56128;37.534;-122.308;2023-08-06T04:33:52;101372.00;;;15.30;100.00
69058;BME280;56128;37.534;-122.308;2023-08-06T04:36:18;101370.28;;;15.29;100.00
69058;BME280;56128;37.534;-122.308;2023-08-06T04:38:43;101368.72;;;15.26;100.00
69058;BME280;56128;37.534;-122.308;2023-08-06T04:41:12;101375.97;;;15.26;100.00
69058;BME280;56128;37.534;-122.308;2023-08-06T04:43:38;101369.53;;;15.17;100.00
69058;BME280;56128;37.534;-122.308;2023-08-06T04:46:05;101382.56;;;15.12;100.00
69058;BME280;56128;37.534;-122.308;2023-08-06T04:48:31;101383.41;;;15.13;100.00
69058;BME280;56128;37.534;-122.308;2023-08-06T04:50:56;101393.59;;;15.09;100.00
69058;BME280;56128;37.534;-122.308;2023-08-06T04:53:22;101393.72;;;15.07;100.00
69058;BME280;56128;37.534;-122.308;2023-08-06T04:55:48;101394.09;;;15.03;100.00
69058;BME280;56128;37.534;-122.308;2023-08-06T04:58:14;101397.19;;;14.98;100.00
69058;BME280;56128;37.534;-122.308;2023-08-06T05:00:39;101390.34;;;14.94;100.00
69058;BME280;56128;37.534;-122.308;2023-08-06T05:03:05;101389.06;;;14.88;100.00
69058;BME280;56128;37.534;-122.308;2023-08-06T05:05:32;101385.75;;;14.85;100.00
69058;BME280;56128;37.534;-122.308;2023-08-06T05:07:58;101394.22;;;14.80;100.00
69058;BME280;56128;37.534;-122.308;2023-08-06T05:10:27;101391.78;;;14.77;100.00
69058;BME280;56128;37.534;-122.308;2023-08-06T05:12:53;101395.00;;;14.71;100.00
69058;BME280;56128;37.534;-122.308;2023-08-06T05:15:19;101389.00;;;14.67;100.00
69058;BME280;56128;37.534;-122.308;2023-08-06T05:17:45;101385.69;;;14.64;100.00
69058;BME280;56128;37.534;-122.308;2023-08-06T05:20:11;101382.38;;;14.60;100.00
69058;BME280;56128;37.534;-122.308;2023-08-06T05:22:37;101382.75;;;14.55;100.00
69058;BME280;56128;37.534;-122.308;2023-08-06T05:25:03;101385.72;;;14.52;100.00
69058;BME280;56128;37.534;-122.308;2023-08-06T05:27:29;101378.03;;;14.48;100.00
69058;BME280;56128;37.534;-122.308;2023-08-06T05:29:55;101374.88;;;14.42;100.00
69058;BME280;56128;37.534;-122.308;2023-08-06T05:32:21;101381.63;;;14.37;100.00
69058;BME280;56128;37.534;-122.308;2023-08-06T05:34:47;101382.97;;;14.31;100.00
69058;BME280;56128;37.534;-122.308;2023-08-06T05:37:13;101381.53;;;14.27;100.00
69058;BME280;56128;37.534;-122.308;2023-08-06T05:39:39;101374.66;;;14.23;100.00
69058;BME280;56128;37.534;-122.308;2023-08-06T05:42:05;101376.38;;;14.24;100.00
69058;BME280;56128;37.534;-122.308;2023-08-06T05:44:31;101372.09;;;14.21;100.00
69058;BME280;56128;37.534;-122.308;2023-08-06T05:46:57;101378.59;;;14.19;100.00
69058;BME280;56128;37.534;-122.308;2023-08-06T05:49:22;101379.84;;;14.15;100.00
69058;BME280;56128;37.534;-122.308;2023-08-06T05:51:48;101387.44;;;14.09;100.00
69058;BME280;56128;37.534;-122.308;2023-08-06T05:54:14;101399.41;;;14.05;100.00
69058;BME280;56128;37.534;-122.308;2023-08-06T05:56:40;101393.03;;;14.06;100.00
69058;BME280;56128;37.534;-122.308;2023-08-06T05:59:05;101397.72;;;14.04;100.00
69058;BME280;56128;37.534;-122.308;2023-08-06T06:01:31;101387.19;;;14.01;100.00
69058;BME280;56128;37.534;-122.308;2023-08-06T06:03:57;101387.19;;;14.01;100.00
69058;BME280;56128;37.534;-122.308;2023-08-06T06:06:23;101394.41;;;14.01;100.00
69058;BME280;56128;37.534;-122.308;2023-08-06T06:08:49;101386.34;;;14.01;100.00
69058;BME280;56128;37.534;-122.308;2023-08-06T06:11:14;101384.63;;;14.00;100.00
69058;BME280;56128;37.534;-122.308;2023-08-06T06:13:40;101378.97;;;14.03;100.00
69058;BME280;56128;37.534;-122.308;2023-08-06T06:16:06;101389.88;;;14.01;100.00
69058;BME280;56128;37.534;-122.308;2023-08-06T06:18:32;101388.06;;;14.02;100.00
69058;BME280;56128;37.534;-122.308;2023-08-06T06:20:58;101387.31;;;14.00;100.00
69058;BME280;56128;37.534;-122.308;2023-08-06T06:23:23;101383.53;;;14.02;100.00
69058;BME280;56128;37.534;-122.308;2023-08-06T06:25:49;101385.97;;;13.94;100.00
69058;BME280;56128;37.534;-122.308;2023-08-06T06:28:18;101383.28;;;13.94;100.00
69058;BME280;56128;37.534;-122.308;2023-08-06T06:30:44;101383.28;;;13.94;100.00
69058;BME280;56128;37.534;-122.308;2023-08-06T06:33:10;101383.16;;;13.95;100.00
69058;BME280;56128;37.534;-122.308;2023-08-06T06:35:36;101378.91;;;13.93;100.00
69058;BME280;56128;37.534;-122.308;2023-08-06T06:38:02;101382.28;;;13.95;100.00
69058;BME280;56128;37.534;-122.308;2023-08-06T06:40:28;101392.34;;;13.93;100.00
69058;BME280;56128;37.534;-122.308;2023-08-06T06:42:54;101380.97;;;13.89;100.00
69058;BME280;56128;37.534;-122.308;2023-08-06T06:45:20;101387.94;;;13.92;100.00
69058;BME280;56128;37.534;-122.308;2023-08-06T06:47:45;101383.06;;;13.86;100.00
69058;BME280;56128;37.534;-122.308;2023-08-06T06:50:11;101392.47;;;13.80;100.00
69058;BME280;56128;37.534;-122.308;2023-08-06T06:52:37;101392.84;;;13.75;100.00
69058;BME280;56128;37.534;-122.308;2023-08-06T06:55:03;101387.81;;;13.71;100.00
69058;BME280;56128;37.534;-122.308;2023-08-06T06:57:29;101384.78;;;13.64;100.00
69058;BME280;56128;37.534;-122.308;2023-08-06T06:59:55;101378.53;;;13.63;100.00
69058;BME280;56128;37.534;-122.308;2023-08-06T07:02:20;101381.56;;;13.59;100.00
69058;BME280;56128;37.534;-122.308;2023-08-06T07:04:46;101381.56;;;13.59;100.00
69058;BME280;56128;37.534;-122.308;2023-08-06T07:07:12;101385.25;;;13.58;100.00
69058;BME280;56128;37.534;-122.308;2023-08-06T07:09:38;101378.41;;;13.54;100.00
69058;BME280;56128;37.534;-122.308;2023-08-06T07:12:04;101379.75;;;13.48;100.00
69058;BME280;56128;37.534;-122.308;2023-08-06T07:14:30;101378.38;;;13.42;100.00
69058;BME280;56128;37.534;-122.308;2023-08-06T07:16:56;101386.72;;;13.39;100.00
69058;BME280;56128;37.534;-122.308;2023-08-06T07:19:21;101387.16;;;13.33;100.00
69058;BME280;56128;37.534;-122.308;2023-08-06T07:21:47;101383.97;;;13.28;100.00
69058;BME280;56128;37.534;-122.308;2023-08-06T07:24:13;101387.84;;;13.24;100.00
69058;BME280;56128;37.534;-122.308;2023-08-06T07:26:39;101395.41;;;13.19;100.00
69058;BME280;56128;37.534;-122.308;2023-08-06T07:29:04;101398.47;;;13.14;100.00
69058;BME280;56128;37.534;-122.308;2023-08-06T07:31:30;101390.50;;;13.12;100.00
69058;BME280;56128;37.534;-122.308;2023-08-06T07:34:16;101402.47;;;13.08;100.00
69058;BME280;56128;37.534;-122.308;2023-08-06T07:36:45;101403.44;;;13.07;100.00
69058;BME280;56128;37.534;-122.308;2023-08-06T07:39:11;101407.34;;;13.03;100.00
69058;BME280;56128;37.534;-122.308;2023-08-06T07:41:37;101406.84;;;12.98;100.00
69058;BME280;56128;37.534;-122.308;2023-08-06T07:44:03;101400.50;;;12.99;100.00
69058;BME280;56128;37.534;-122.308;2023-08-06T07:46:29;101402.22;;;13.00;100.00
69058;BME280;56128;37.534;-122.308;2023-08-06T07:48:55;101398.91;;;12.96;100.00
69058;BME280;56128;37.534;-122.308;2023-08-06T07:51:21;101401.69;;;12.95;100.00
69058;BME280;56128;37.534;-122.308;2023-08-06T07:53:47;101392.91;;;12.93;100.00
69058;BME280;56128;37.534;-122.308;2023-08-06T07:56:12;101389.97;;;12.96;100.00
69058;BME280;56128;37.534;-122.308;2023-08-06T07:58:38;101400.25;;;13.02;100.00
69058;BME280;56128;37.534;-122.308;2023-08-06T08:01:05;101395.13;;;12.99;100.00
69058;BME280;56128;37.534;-122.308;2023-08-06T08:03:31;101400.97;;;12.93;100.00
69058;BME280;56128;37.534;-122.308;2023-08-06T08:05:57;101390.56;;;12.88;100.00
69058;BME280;56128;37.534;-122.308;2023-08-06T08:08:23;101390.69;;;12.87;100.00
69058;BME280;56128;37.534;-122.308;2023-08-06T08:10:49;101388.00;;;12.87;100.00
69058;BME280;56128;37.534;-122.308;2023-08-06T08:13:15;101393.72;;;12.82;100.00
69058;BME280;56128;37.534;-122.308;2023-08-06T08:15:40;101387.38;;;12.83;100.00
69058;BME280;56128;37.534;-122.308;2023-08-06T08:18:07;101390.31;;;12.80;100.00
69058;BME280;56128;37.534;-122.308;2023-08-06T08:20:33;101376.75;;;12.81;100.00
69058;BME280;56128;37.534;-122.308;2023-08-06T08:23:00;101375.88;;;12.81;100.00
69058;BME280;56128;37.534;-122.308;2023-08-06T08:25:26;101375.06;;;12.80;100.00
69058;BME280;56128;37.534;-122.308;2023-08-06T08:27:53;101378.47;;;12.82;100.00
69058;BME280;56128;37.534;-122.308;2023-08-06T08:30:19;101369.91;;;12.77;100.00
69058;BME280;56128;37.534;-122.308;2023-08-06T08:32:44;101375.50;;;12.74;100.00
69058;BME280;56128;37.534;-122.308;2023-08-06T08:35:10;101374.88;;;12.71;100.00
69058;BME280;56128;37.534;-122.308;2023-08-06T08:37:38;101362.03;;;12.63;100.00
69058;BME280;56128;37.534;-122.308;2023-08-06T08:40:05;101365.81;;;12.60;100.00
69058;BME280;56128;37.534;-122.308;2023-08-06T08:42:31;101368.72;;;12.57;100.00
69058;BME280;56128;37.534;-122.308;2023-08-06T08:44:57;101357.38;;;12.54;100.00
69058;BME280;56128;37.534;-122.308;2023-08-06T08:47:23;101352.22;;;12.50;100.00
69058;BME280;56128;37.534;-122.308;2023-08-06T08:49:52;101359.31;;;12.52;100.00
69058;BME280;56128;37.534;-122.308;2023-08-06T08:52:21;101357.72;;;12.49;100.00
69058;BME280;56128;37.534;-122.308;2023-08-06T08:54:48;101348.78;;;12.48;100.00
69058;BME280;56128;37.534;-122.308;2023-08-06T08:57:17;101350.88;;;12.45;100.00
69058;BME280;56128;37.534;-122.308;2023-08-06T08:59:43;101347.44;;;12.43;100.00
69058;BME280;56128;37.534;-122.308;2023-08-06T09:02:09;101350.47;;;12.38;100.00
69058;BME280;56128;37.534;-122.308;2023-08-06T09:04:36;101349.09;;;12.32;100.00
69058;BME280;56128;37.534;-122.308;2023-08-06T09:07:03;101350.81;;;12.33;100.00
69058;BME280;56128;37.534;-122.308;2023-08-06T09:09:33;101357.47;;;12.28;100.00
69058;BME280;56128;37.534;-122.308;2023-08-06T09:12:13;101352.13;;;12.28;100.00
69058;BME280;56128;37.534;-122.308;2023-08-06T09:14:40;101355.66;;;12.28;100.00
69058;BME280;56128;37.534;-122.308;2023-08-06T09:17:05;101352.34;;;12.25;100.00
69058;BME280;56128;37.534;-122.308;2023-08-06T09:19:31;101356.00;;;12.24;100.00
69058;BME280;56128;37.534;-122.308;2023-08-06T09:21:58;101351.94;;;12.18;100.00
69058;BME280;56128;37.534;-122.308;2023-08-06T09:24:24;101357.31;;;12.18;100.00
69058;BME280;56128;37.534;-122.308;2023-08-06T09:26:51;101349.25;;;12.18;100.00
69058;BME280;56128;37.534;-122.308;2023-08-06T09:29:17;101351.09;;;12.17;100.00
69058;BME280;56128;37.534;-122.308;2023-08-06T09:31:44;101346.38;;;12.21;100.00
69058;BME280;56128;37.534;-122.308;2023-08-06T09:34:10;101344.53;;;12.22;100.00
69058;BME280;56128;37.534;-122.308;2023-08-06T09:36:48;101345.53;;;12.32;100.00
69058;BME280;56128;37.534;-122.308;2023-08-06T09:39:17;101349.19;;;12.31;100.00
69058;BME280;56128;37.534;-122.308;2023-08-06T09:41:43;101348.34;;;12.30;100.00
69058;BME280;56128;37.534;-122.308;2023-08-06T09:44:19;101349.94;;;12.33;100.00
69058;BME280;56128;37.534;-122.308;2023-08-06T09:46:49;101354.00;;;12.39;100.00
69058;BME280;56128;37.534;-122.308;2023-08-06T09:49:15;101350.00;;;12.44;100.00
69058;BME280;56128;37.534;-122.308;2023-08-06T09:51:41;101361.38;;;12.48;100.00
69058;BME280;56128;37.534;-122.308;2023-08-06T09:54:07;101363.09;;;12.49;100.00
69058;BME280;56128;37.534;-122.308;2023-08-06T09:56:34;101364.38;;;12.43;100.00
69058;BME280;56128;37.534;-122.308;2023-08-06T09:59:06;101366.34;;;12.41;100.00
69058;BME280;56128;37.534;-122.308;2023-08-06T10:01:33;101367.53;;;12.37;100.00
69058;BME280;56128;37.534;-122.308;2023-08-06T10:03:59;101363.47;;;12.31;100.00
69058;BME280;56128;37.534;-122.308;2023-08-06T10:06:26;101362.84;;;12.28;100.00
69058;BME280;56128;37.534;-122.308;2023-08-06T10:08:53;101356.63;;;12.27;100.00
69058;BME280;56128;37.534;-122.308;2023-08-06T10:11:20;101357.81;;;12.23;100.00
69058;BME280;56128;37.534;-122.308;2023-08-06T10:13:47;101352.81;;;12.18;100.00
69058;BME280;56128;37.534;-122.308;2023-08-06T10:16:13;101353.03;;;12.15;100.00
69058;BME280;56128;37.534;-122.308;2023-08-06T10:18:40;101342.53;;;12.12;100.00
69058;BME280;56128;37.534;-122.308;2023-08-06T10:21:07;101349.94;;;12.09;100.00
69058;BME280;56128;37.534;-122.308;2023-08-06T10:23:35;101352.00;;;12.05;100.00
69058;BME280;56128;37.534;-122.308;2023-08-06T10:26:03;101354.03;;;12.01;100.00
69058;BME280;56128;37.534;-122.308;2023-08-06T10:28:35;101348.16;;;11.96;100.00
69058;BME280;56128;37.534;-122.308;2023-08-06T10:31:01;101346.53;;;11.94;100.00
69058;BME280;56128;37.534;-122.308;2023-08-06T10:33:47;101351.59;;;11.98;100.00
69058;BME280;56128;37.534;-122.308;2023-08-06T10:36:13;101355.34;;;11.96;100.00
69058;BME280;56128;37.534;-122.308;2023-08-06T10:38:46;101344.69;;;11.94;100.00
69058;BME280;56128;37.534;-122.308;2023-08-06T10:41:22;101348.31;;;11.93;100.00
69058;BME280;56128;37.534;-122.308;2023-08-06T10:43:49;101343.97;;;11.92;100.00
69058;BME280;56128;37.534;-122.308;2023-08-06T10:46:26;101337.97;;;11.89;100.00
69058;BME280;56128;37.534;-122.308;2023-08-06T10:48:52;101334.31;;;11.90;100.00
69058;BME280;56128;37.534;-122.308;2023-08-06T10:51:18;101334.53;;;11.86;100.00
69058;BME280;56128;37.534;-122.308;2023-08-06T10:53:45;101339.03;;;11.86;100.00
69058;BME280;56128;37.534;-122.308;2023-08-06T10:56:14;101332.06;;;11.83;100.00
69058;BME280;56128;37.534;-122.308;2023-08-06T10:58:41;101333.16;;;11.81;100.00
69058;BME280;56128;37.534;-122.308;2023-08-06T11:01:07;101331.66;;;11.77;100.00
69058;BME280;56128;37.534;-122.308;2023-08-06T11:03:33;101341.72;;;11.73;100.00
69058;BME280;56128;37.534;-122.308;2023-08-06T11:06:00;101344.53;;;11.72;100.00
69058;BME280;56128;37.534;-122.308;2023-08-06T11:08:26;101348.09;;;11.72;100.00
69058;BME280;56128;37.534;-122.308;2023-08-06T11:10:53;101347.53;;;11.67;100.00
69058;BME280;56128;37.534;-122.308;2023-08-06T11:13:19;101345.84;;;11.66;100.00
69058;BME280;56128;37.534;-122.308;2023-08-06T11:15:45;101340.47;;;11.66;100.00
69058;BME280;56128;37.534;-122.308;2023-08-06T11:18:14;101337.16;;;11.62;100.00
69058;BME280;56128;37.534;-122.308;2023-08-06T11:20:40;101342.72;;;11.59;100.00
69058;BME280;56128;37.534;-122.308;2023-08-06T11:23:06;101345.41;;;11.59;100.00
69058;BME280;56128;37.534;-122.308;2023-08-06T11:25:36;101346.28;;;11.60;100.00
69058;BME280;56128;37.534;-122.308;2023-08-06T11:28:02;101340.38;;;11.55;100.00
69058;BME280;56128;37.534;-122.308;2023-08-06T11:30:28;101341.47;;;11.52;100.00
69058;BME280;56128;37.534;-122.308;2023-08-06T11:32:53;101338.16;;;11.48;100.00
69058;BME280;56128;37.534;-122.308;2023-08-06T11:35:19;101330.31;;;11.45;100.00
69058;BME280;56128;37.534;-122.308;2023-08-06T11:37:45;101330.53;;;11.42;100.00
69058;BME280;56128;37.534;-122.308;2023-08-06T11:40:11;101334.94;;;11.43;100.00
69058;BME280;56128;37.534;-122.308;2023-08-06T11:42:37;101334.06;;;11.43;100.00
69058;BME280;56128;37.534;-122.308;2023-08-06T11:45:03;101331.50;;;11.41;100.00
69058;BME280;56128;37.534;-122.308;2023-08-06T11:47:29;101328.69;;;11.43;100.00
69058;BME280;56128;37.534;-122.308;2023-08-06T11:49:55;101334.38;;;11.38;100.00
69058;BME280;56128;37.534;-122.308;2023-08-06T11:52:25;101331.16;;;11.33;100.00
69058;BME280;56128;37.534;-122.308;2023-08-06T11:55:01;101330.44;;;11.31;100.00
69058;BME280;56128;37.534;-122.308;2023-08-06T11:57:35;101343.84;;;11.31;100.00
69058;BME280;56128;37.534;-122.308;2023-08-06T12:00:02;101349.41;;;11.28;100.00
69058;BME280;56128;37.534;-122.308;2023-08-06T12:02:31;101353.03;;;11.27;100.00
69058;BME280;56128;37.534;-122.308;2023-08-06T12:05:00;101360.88;;;11.30;100.00
69058;BME280;56128;37.534;-122.308;2023-08-06T12:07:28;101352.19;;;11.26;100.00
69058;BME280;56128;37.534;-122.308;2023-08-06T12:09:53;101360.97;;;11.28;100.00
69058;BME280;56128;37.534;-122.308;2023-08-06T12:12:19;101359.69;;;11.21;100.00
69058;BME280;56128;37.534;-122.308;2023-08-06T12:14:45;101366.84;;;11.20;100.00
69058;BME280;56128;37.534;-122.308;2023-08-06T12:17:11;101360.75;;;11.18;100.00
69058;BME280;56128;37.534;-122.308;2023-08-06T12:19:36;101365.25;;;11.18;100.00